createdAt,value
2018-08-07T00:01:57.312Z,1.67
2018-08-07T00:04:31.681Z,1.37
2018-08-07T00:07:06.221Z,1.40
2018-08-07T00:09:40.993Z,1.70
2018-08-07T00:12:15.172Z,1.60
2018-08-07T00:14:49.180Z,1.60
2018-08-07T00:17:23.600Z,1.70
2018-08-07T00:19:57.526Z,1.50
2018-08-07T00:22:31.521Z,1.55
2018-08-07T00:25:06.976Z,1.27
2018-08-07T00:27:41.515Z,1.52
2018-08-07T00:30:16.207Z,1.60
2018-08-07T00:32:50.245Z,1.60
2018-08-07T00:35:23.927Z,1.62
2018-08-07T00:37:58.031Z,1.98
2018-08-07T00:40:31.966Z,1.67
2018-08-07T00:43:05.866Z,1.60
2018-08-07T00:45:39.836Z,1.70
2018-08-07T00:48:13.900Z,1.70
2018-08-07T00:50:47.944Z,1.90
2018-08-07T00:53:22.205Z,1.60
2018-08-07T00:55:56.812Z,1.80
2018-08-07T00:58:31.546Z,1.52
2018-08-07T01:01:05.924Z,1.75
2018-08-07T01:03:39.675Z,1.70
2018-08-07T01:06:13.757Z,1.70
2018-08-07T01:08:47.981Z,1.70
2018-08-07T01:11:22.104Z,1.60
2018-08-07T01:13:56.280Z,1.80
2018-08-07T01:16:30.197Z,1.92
2018-08-07T01:19:04.454Z,1.82
2018-08-07T01:21:38.770Z,1.50
2018-08-07T01:24:13.001Z,1.60
2018-08-07T01:26:47.977Z,1.50
2018-08-07T01:29:23.044Z,1.50
2018-08-07T01:31:56.985Z,1.50
2018-08-07T01:34:31.181Z,1.87
2018-08-07T01:37:05.988Z,2.05
2018-08-07T01:39:39.871Z,1.80
2018-08-07T01:42:13.824Z,1.70
2018-08-07T01:44:47.990Z,1.62
2018-08-07T01:47:22.155Z,1.57
2018-08-07T01:49:56.152Z,1.67
2018-08-07T01:52:35.728Z,1.90
2018-08-07T01:55:12.367Z,1.87
2018-08-07T01:57:46.289Z,1.90
2018-08-07T02:00:20.728Z,1.50
2018-08-07T02:02:54.856Z,1.80
2018-08-07T02:05:29.125Z,1.92
2018-08-07T02:08:03.185Z,1.60
2018-08-07T02:10:37.033Z,1.67
2018-08-07T02:13:11.422Z,1.70
2018-08-07T02:15:45.294Z,1.90
2018-08-07T02:18:19.216Z,1.50
2018-08-07T02:20:53.342Z,1.47
2018-08-07T02:23:27.420Z,1.90
2018-08-07T02:26:01.871Z,1.60
2018-08-07T02:28:35.852Z,1.70
2018-08-07T02:31:09.922Z,1.57
2018-08-07T02:33:44.090Z,1.50
2018-08-07T02:36:18.027Z,1.50
2018-08-07T02:38:52.110Z,1.90
2018-08-07T02:41:26.196Z,1.90
2018-08-07T02:44:00.446Z,1.85
2018-08-07T02:46:34.541Z,1.62
2018-08-07T02:49:09.213Z,1.90
2018-08-07T02:51:43.495Z,1.60
2018-08-07T02:54:18.369Z,1.80
2018-08-07T02:56:52.042Z,1.75
2018-08-07T02:59:26.208Z,1.60
2018-08-07T03:01:59.964Z,1.57
2018-08-07T03:04:34.161Z,1.77
2018-08-07T03:07:08.366Z,2.00
2018-08-07T03:09:42.452Z,1.60
2018-08-07T03:12:16.566Z,1.60
2018-08-07T03:14:51.242Z,1.70
2018-08-07T03:17:25.397Z,1.60
2018-08-07T03:19:59.445Z,1.70
2018-08-07T03:22:33.763Z,1.65
2018-08-07T03:25:10.850Z,1.75
2018-08-07T03:27:45.859Z,1.60
2018-08-07T03:30:20.526Z,1.80
2018-08-07T03:32:54.376Z,2.15
2018-08-07T03:35:28.494Z,1.92
2018-08-07T03:38:02.737Z,1.98
2018-08-07T03:40:36.635Z,2.00
2018-08-07T03:43:10.670Z,1.70
2018-08-07T03:45:44.915Z,1.90
2018-08-07T03:48:18.956Z,1.92
2018-08-07T03:50:52.732Z,1.72
2018-08-07T03:53:26.783Z,1.70
2018-08-07T03:56:01.363Z,1.92
2018-08-07T03:58:35.551Z,1.87
2018-08-07T04:01:09.496Z,1.90
2018-08-07T04:03:43.297Z,1.85
2018-08-07T04:06:17.208Z,1.85
2018-08-07T04:08:51.625Z,1.85
2018-08-07T04:11:26.020Z,1.82
2018-08-07T04:14:00.264Z,2.10
2018-08-07T04:16:34.412Z,2.27
2018-08-07T04:19:08.530Z,1.80
2018-08-07T04:21:42.355Z,2.08
2018-08-07T04:24:16.160Z,2.00
2018-08-07T04:26:51.571Z,2.00
2018-08-07T04:29:25.507Z,1.85
2018-08-07T04:31:59.557Z,2.20
2018-08-07T04:34:33.327Z,2.17
2018-08-07T04:37:07.270Z,2.33
2018-08-07T04:39:41.016Z,2.30
2018-08-07T04:42:15.200Z,2.80
2018-08-07T04:44:49.218Z,3.20
2018-08-07T04:47:22.916Z,2.30
2018-08-07T04:49:56.865Z,2.40
2018-08-07T04:52:30.905Z,2.27
2018-08-07T04:55:05.793Z,2.60
2018-08-07T04:57:39.818Z,2.20
2018-08-07T05:00:17.747Z,2.40
2018-08-07T05:02:52.134Z,2.65
2018-08-07T05:05:26.282Z,2.35
2018-08-07T05:08:00.424Z,2.55
2018-08-07T05:10:34.480Z,2.40
2018-08-07T05:13:08.406Z,2.58
2018-08-07T05:15:42.287Z,2.45
2018-08-07T05:18:16.105Z,2.20
2018-08-07T05:20:50.177Z,2.22
2018-08-07T05:23:24.106Z,2.17
2018-08-07T05:25:58.006Z,2.45
2018-08-07T05:28:31.859Z,2.62
2018-08-07T05:31:06.005Z,2.10
2018-08-07T05:33:39.951Z,1.90
2018-08-07T05:36:14.255Z,2.50
2018-08-07T05:38:48.078Z,2.37
2018-08-07T05:41:21.970Z,2.40
2018-08-07T05:43:55.837Z,2.33
2018-08-07T05:46:30.230Z,2.17
2018-08-07T05:49:04.117Z,2.37
2018-08-07T05:51:38.212Z,2.50
2018-08-07T05:54:12.170Z,2.00
2018-08-07T05:56:45.971Z,2.40
2018-08-07T05:59:20.041Z,2.30
2018-08-07T06:01:54.157Z,2.50
2018-08-07T06:04:28.177Z,2.40
2018-08-07T06:07:02.092Z,2.45
2018-08-07T06:09:36.477Z,2.60
2018-08-07T06:12:10.606Z,2.17
2018-08-07T06:14:44.687Z,2.60
2018-08-07T06:17:18.487Z,2.30
2018-08-07T06:19:52.362Z,2.50
2018-08-07T06:22:26.270Z,2.47
2018-08-07T06:25:00.642Z,2.33
2018-08-07T06:27:35.413Z,2.60
2018-08-07T06:30:13.172Z,2.70
2018-08-07T06:32:48.386Z,2.87
2018-08-07T06:35:22.249Z,2.77
2018-08-07T06:37:56.366Z,2.42
2018-08-07T06:40:30.449Z,2.58
2018-08-07T06:43:04.439Z,2.90
2018-08-07T06:45:38.397Z,3.02
2018-08-07T06:48:12.266Z,3.33
2018-08-07T06:50:46.227Z,2.62
2018-08-07T06:53:20.388Z,2.72
2018-08-07T06:55:54.370Z,3.05
2018-08-07T06:58:28.290Z,2.95
2018-08-07T07:01:02.710Z,2.95
2018-08-07T07:03:36.785Z,2.98
2018-08-07T07:06:10.990Z,3.22
2018-08-07T07:08:45.137Z,3.02
2018-08-07T07:11:19.997Z,3.30
2018-08-07T07:13:54.491Z,2.72
2018-08-07T07:16:28.314Z,3.30
2018-08-07T07:19:02.921Z,2.83
2018-08-07T07:21:37.052Z,2.98
2018-08-07T07:24:11.220Z,2.55
2018-08-07T07:26:45.301Z,2.50
2018-08-07T07:29:19.160Z,2.90
2018-08-07T07:31:52.931Z,2.58
2018-08-07T07:34:26.979Z,3.10
2018-08-07T07:37:01.020Z,3.00
2018-08-07T07:39:35.451Z,2.80
2018-08-07T07:42:09.791Z,2.80
2018-08-07T07:44:44.065Z,2.50
2018-08-07T07:47:18.792Z,2.77
2018-08-07T07:49:52.690Z,3.08
2018-08-07T07:52:26.855Z,3.10
2018-08-07T07:55:00.850Z,3.12
2018-08-07T07:57:35.330Z,3.00
2018-08-07T08:00:26.347Z,3.05
2018-08-07T08:03:00.376Z,3.40
2018-08-07T08:05:34.667Z,3.77
2018-08-07T08:08:09.333Z,3.70
2018-08-07T08:10:43.200Z,3.77
2018-08-07T08:13:17.456Z,3.62
2018-08-07T08:15:51.647Z,3.67
2018-08-07T08:18:25.764Z,3.70
2018-08-07T08:21:00.012Z,3.77
2018-08-07T08:23:34.224Z,4.03
2018-08-07T08:26:08.654Z,3.98
2018-08-07T08:28:42.732Z,3.55
2018-08-07T08:31:16.838Z,3.50
2018-08-07T08:33:51.041Z,3.52
2018-08-07T08:36:25.181Z,3.65
2018-08-07T08:38:59.298Z,3.52
2018-08-07T08:41:33.380Z,3.70
2018-08-07T08:44:10.057Z,3.60
2018-08-07T08:46:44.213Z,3.72
2018-08-07T08:49:18.553Z,4.10
2018-08-07T08:51:53.403Z,3.70
2018-08-07T08:54:27.586Z,3.80
2018-08-07T08:57:01.617Z,3.85
2018-08-07T08:59:35.740Z,3.77
2018-08-07T09:02:09.855Z,4.03
2018-08-07T09:04:44.063Z,3.70
2018-08-07T09:07:18.171Z,3.77
2018-08-07T09:09:59.011Z,3.60
2018-08-07T09:12:32.833Z,3.70
2018-08-07T09:15:06.990Z,3.90
2018-08-07T09:17:41.216Z,3.40
2018-08-07T09:20:17.826Z,3.70
2018-08-07T09:22:51.916Z,3.47
2018-08-07T09:25:27.554Z,3.72
2018-08-07T09:28:01.723Z,3.70
2018-08-07T09:30:35.738Z,3.42
2018-08-07T09:33:09.839Z,3.87
2018-08-07T09:35:44.085Z,3.45
2018-08-07T09:38:18.115Z,3.77
2018-08-07T09:40:51.851Z,3.77
2018-08-07T09:43:25.796Z,3.50
2018-08-07T09:45:59.939Z,3.45
2018-08-07T09:48:33.844Z,3.70
2018-08-07T09:51:08.112Z,3.72
2018-08-07T09:53:42.027Z,3.55
2018-08-07T09:56:16.468Z,3.50
2018-08-07T09:58:50.537Z,3.60
2018-08-07T10:01:29.942Z,3.42
2018-08-07T10:04:04.021Z,3.67
2018-08-07T10:06:38.409Z,3.37
2018-08-07T10:09:12.448Z,3.27
2018-08-07T10:11:46.627Z,3.30
2018-08-07T10:14:20.660Z,3.22
2018-08-07T10:16:54.748Z,3.17
2018-08-07T10:19:28.911Z,3.30
2018-08-07T10:22:03.141Z,3.40
2018-08-07T10:24:37.336Z,3.47
2018-08-07T10:27:11.205Z,3.37
2018-08-07T10:29:45.227Z,3.00
2018-08-07T10:32:20.254Z,3.30
2018-08-07T10:34:54.507Z,3.45
2018-08-07T10:37:29.212Z,3.33
2018-08-07T10:40:04.035Z,3.47
2018-08-07T10:42:38.087Z,3.85
2018-08-07T10:45:14.120Z,3.47
2018-08-07T10:47:48.326Z,3.62
2018-08-07T10:50:25.080Z,3.10
2018-08-07T10:52:59.859Z,3.10
2018-08-07T10:55:34.311Z,3.12
2018-08-07T10:58:08.874Z,3.25
2018-08-07T11:00:43.398Z,3.45
2018-08-07T11:03:17.472Z,3.20
2018-08-07T11:05:51.489Z,3.70
2018-08-07T11:08:25.477Z,3.62
2018-08-07T11:10:59.341Z,3.00
2018-08-07T11:13:33.721Z,3.52
2018-08-07T11:16:07.847Z,3.35
2018-08-07T11:18:42.151Z,3.70
2018-08-07T11:21:16.048Z,3.58
2018-08-07T11:23:50.144Z,3.45
2018-08-07T11:26:24.677Z,3.40
2018-08-07T11:28:58.658Z,3.77
2018-08-07T11:32:03.571Z,3.47
2018-08-07T11:34:37.608Z,3.40
2018-08-07T11:37:11.465Z,3.90
2018-08-07T11:39:45.696Z,3.45
2018-08-07T11:42:20.191Z,3.70
2018-08-07T11:44:54.494Z,3.62
2018-08-07T11:47:29.571Z,3.70
2018-08-07T11:50:06.615Z,3.85
2018-08-07T11:52:41.038Z,3.67
2018-08-07T11:55:16.515Z,3.30
2018-08-07T11:57:51.955Z,3.77
2018-08-07T12:00:30.645Z,3.65
2018-08-07T12:03:06.892Z,3.65
2018-08-07T12:05:40.884Z,3.83
2018-08-07T12:08:15.599Z,3.70
2018-08-07T12:10:49.600Z,3.72
2018-08-07T12:13:23.599Z,3.80
2018-08-07T12:15:57.750Z,3.83
2018-08-07T12:18:31.847Z,3.83
2018-08-07T12:21:05.879Z,3.50
2018-08-07T12:23:40.409Z,3.80
2018-08-07T12:26:14.620Z,3.62
2018-08-07T12:28:49.005Z,4.00
2018-08-07T12:31:23.280Z,3.70
2018-08-07T12:33:58.267Z,4.08
2018-08-07T12:36:32.346Z,4.03
2018-08-07T12:39:07.960Z,3.83
2018-08-07T12:41:41.964Z,3.60
2018-08-07T12:44:16.225Z,3.95
2018-08-07T12:46:50.338Z,4.10
2018-08-07T12:49:24.538Z,3.85
2018-08-07T12:51:58.767Z,3.90
2018-08-07T12:54:33.005Z,3.83
2018-08-07T12:57:07.535Z,3.80
2018-08-07T12:59:41.705Z,3.55
2018-08-07T13:02:16.028Z,3.80
2018-08-07T13:04:49.881Z,3.92
2018-08-07T13:07:24.831Z,3.85
2018-08-07T13:09:58.996Z,4.10
2018-08-07T13:12:33.109Z,3.98
2018-08-07T13:15:08.632Z,3.77
2018-08-07T13:17:43.390Z,3.60
2018-08-07T13:20:18.170Z,4.03
2018-08-07T13:22:52.362Z,3.80
2018-08-07T13:25:26.395Z,3.60
2018-08-07T13:28:00.521Z,3.95
2018-08-07T13:30:34.679Z,4.03
2018-08-07T13:33:09.368Z,4.10
2018-08-07T13:35:43.584Z,4.42
2018-08-07T13:38:17.957Z,4.33
2018-08-07T13:40:52.701Z,3.80
2018-08-07T13:43:26.751Z,4.30
2018-08-07T13:46:00.773Z,4.03
2018-08-07T13:48:35.413Z,3.85
2018-08-07T13:51:14.671Z,3.87
2018-08-07T13:53:49.498Z,3.95
2018-08-07T13:56:23.394Z,4.20
2018-08-07T13:58:57.485Z,4.33
2018-08-07T14:01:31.927Z,4.37
2018-08-07T14:04:06.341Z,3.80
2018-08-07T14:06:40.616Z,3.95
2018-08-07T14:09:14.795Z,4.00
2018-08-07T14:11:48.690Z,3.87
2018-08-07T14:14:22.672Z,4.00
2018-08-07T14:16:56.560Z,4.40
2018-08-07T14:19:30.666Z,3.83
2018-08-07T14:22:04.624Z,4.10
2018-08-07T14:24:38.696Z,4.30
2018-08-07T14:27:12.894Z,4.37
2018-08-07T14:29:47.151Z,3.72
2018-08-07T14:32:21.795Z,4.12
2018-08-07T14:34:55.867Z,4.20
2018-08-07T14:37:30.023Z,3.83
2018-08-07T14:40:05.946Z,4.37
2018-08-07T14:42:41.512Z,3.87
2018-08-07T14:45:17.841Z,3.80
2018-08-07T14:47:52.755Z,4.30
2018-08-07T14:50:28.490Z,4.20
2018-08-07T14:53:02.447Z,3.92
2018-08-07T14:55:37.250Z,4.50
2018-08-07T14:58:11.206Z,4.42
2018-08-07T15:00:45.581Z,4.10
2018-08-07T15:03:20.832Z,4.45
2018-08-07T15:05:55.984Z,4.50
2018-08-07T15:08:30.007Z,4.50
2018-08-07T15:11:03.960Z,4.75
2018-08-07T15:13:38.428Z,4.22
2018-08-07T15:16:12.691Z,4.58
2018-08-07T15:18:47.006Z,4.65
2018-08-07T15:21:21.067Z,4.40
2018-08-07T15:23:55.792Z,4.85
2018-08-07T15:26:30.143Z,4.22
2018-08-07T15:29:04.248Z,4.25
2018-08-07T15:31:39.455Z,4.60
2018-08-07T15:34:13.346Z,4.60
2018-08-07T15:36:48.342Z,5.22
2018-08-07T15:39:22.738Z,5.20
2018-08-07T15:41:56.832Z,5.45
2018-08-07T15:44:30.890Z,5.50
2018-08-07T15:47:05.053Z,5.30
2018-08-07T15:49:39.676Z,5.40
2018-08-07T15:52:13.908Z,4.95
2018-08-07T15:54:48.361Z,5.58
2018-08-07T15:57:22.328Z,5.60
2018-08-07T15:59:56.758Z,6.53
2018-08-07T16:02:31.207Z,6.08
2018-08-07T16:05:05.860Z,6.12
2018-08-07T16:07:40.031Z,5.80
2018-08-07T16:10:15.830Z,6.35
2018-08-07T16:12:50.956Z,6.47
2018-08-07T16:15:24.885Z,6.42
2018-08-07T16:17:59.668Z,6.58
2018-08-07T16:20:33.968Z,6.42
2018-08-07T16:23:07.873Z,6.53
2018-08-07T16:25:42.375Z,6.33
2018-08-07T16:28:16.805Z,6.67
2018-08-07T16:30:51.126Z,7.42
2018-08-07T16:33:24.909Z,7.55
2018-08-07T16:35:59.253Z,7.30
2018-08-07T16:38:33.311Z,7.30
2018-08-07T16:41:08.222Z,7.80
2018-08-07T16:43:42.492Z,11.43
2018-08-07T16:46:16.532Z,8.68
2018-08-07T16:48:50.876Z,8.18
2018-08-07T16:51:25.295Z,7.75
2018-08-07T16:53:59.393Z,7.37
2018-08-07T16:56:33.451Z,8.03
2018-08-07T16:59:07.352Z,8.13
2018-08-07T17:01:41.457Z,7.17
2018-08-07T17:04:15.572Z,8.10
2018-08-07T17:06:49.502Z,7.70
2018-08-07T17:09:24.101Z,7.72
2018-08-07T17:11:58.425Z,8.35
2018-08-07T17:14:32.367Z,7.25
2018-08-07T17:17:06.733Z,7.80
2018-08-07T17:19:41.047Z,7.37
2018-08-07T17:22:14.980Z,6.90
2018-08-07T17:24:49.330Z,7.08
2018-08-07T17:27:24.328Z,7.30
2018-08-07T17:29:58.323Z,7.30
2018-08-07T17:32:32.458Z,7.70
2018-08-07T17:35:07.017Z,7.58
2018-08-07T17:37:41.461Z,6.97
2018-08-07T17:40:17.021Z,7.67
2018-08-07T17:42:51.038Z,7.22
2018-08-07T17:45:25.125Z,7.72
2018-08-07T17:47:58.994Z,7.78
2018-08-07T17:50:33.385Z,7.35
2018-08-07T17:53:07.576Z,6.80
2018-08-07T17:55:41.867Z,6.70
2018-08-07T17:58:16.120Z,6.67
2018-08-07T18:00:50.552Z,6.58
2018-08-07T18:03:24.602Z,6.80
2018-08-07T18:05:58.952Z,6.85
2018-08-07T18:08:33.605Z,7.12
2018-08-07T18:11:08.132Z,7.03
2018-08-07T18:13:42.313Z,7.20
2018-08-07T18:16:16.751Z,7.53
2018-08-07T18:18:51.755Z,6.67
2018-08-07T18:21:26.014Z,6.70
2018-08-07T18:24:00.153Z,5.87
2018-08-07T18:26:34.411Z,6.25
2018-08-07T18:29:08.626Z,6.55
2018-08-07T18:31:42.755Z,6.42
2018-08-07T18:34:17.012Z,6.78
2018-08-07T18:36:50.955Z,6.40
2018-08-07T18:39:25.312Z,6.90
2018-08-07T18:41:59.629Z,6.95
2018-08-07T18:44:33.888Z,6.95
2018-08-07T18:47:07.906Z,7.40
2018-08-07T18:49:42.206Z,7.20
2018-08-07T18:52:16.183Z,7.30
2018-08-07T18:54:50.420Z,7.83
2018-08-07T18:57:24.832Z,8.15
2018-08-07T18:59:58.812Z,7.60
2018-08-07T19:02:33.011Z,7.65
2018-08-07T19:05:08.435Z,7.28
2018-08-07T19:07:42.549Z,6.62
2018-08-07T19:10:17.062Z,7.28
2018-08-07T19:12:51.313Z,7.33
2018-08-07T19:15:25.410Z,6.80
2018-08-07T19:17:59.402Z,6.67
2018-08-07T19:20:33.714Z,6.97
2018-08-07T19:23:08.144Z,6.22
2018-08-07T19:25:42.321Z,6.90
2018-08-07T19:28:16.700Z,6.95
2018-08-07T19:30:50.985Z,6.83
2018-08-07T19:33:25.101Z,6.50
2018-08-07T19:35:59.118Z,7.00
2018-08-07T19:38:33.360Z,6.78
2018-08-07T19:41:08.150Z,6.55
2018-08-07T19:43:42.429Z,6.65
2018-08-07T19:46:17.261Z,6.62
2018-08-07T19:48:51.458Z,7.12
2018-08-07T19:51:25.738Z,7.20
2018-08-07T19:54:00.739Z,7.47
2018-08-07T19:56:34.754Z,6.97
2018-08-07T19:59:08.915Z,7.60
2018-08-07T20:01:43.240Z,7.65
2018-08-07T20:04:17.097Z,7.67
2018-08-07T20:06:51.785Z,8.18
2018-08-07T20:09:25.778Z,7.37
2018-08-07T20:12:00.096Z,8.25
2018-08-07T20:14:34.680Z,8.20
2018-08-07T20:17:08.708Z,8.20
2018-08-07T20:19:42.822Z,8.75
2018-08-07T20:22:17.113Z,8.43
2018-08-07T20:24:51.576Z,8.53
2018-08-07T20:27:25.911Z,7.85
2018-08-07T20:30:00.608Z,8.65
2018-08-07T20:32:34.505Z,8.70
2018-08-07T20:35:08.996Z,8.60
2018-08-07T20:37:43.070Z,8.78
2018-08-07T20:40:19.896Z,8.83
2018-08-07T20:42:55.108Z,9.00
2018-08-07T20:45:29.220Z,8.93
2018-08-07T20:48:03.499Z,8.83
2018-08-07T20:50:37.883Z,8.25
2018-08-07T20:53:11.880Z,8.25
2018-08-07T20:55:46.181Z,8.53
2018-08-07T20:58:20.120Z,9.28
2018-08-07T21:00:54.219Z,9.25
2018-08-07T21:03:28.615Z,9.13
2018-08-07T21:06:03.272Z,8.78
2018-08-07T21:08:37.142Z,8.70
2018-08-07T21:11:11.216Z,8.48
2018-08-07T21:13:45.341Z,9.30
2018-08-07T21:16:20.259Z,9.13
2018-08-07T21:18:54.138Z,9.15
2018-08-07T21:21:28.112Z,9.03
2018-08-07T21:24:02.087Z,8.90
2018-08-07T21:26:36.033Z,8.88
2018-08-07T21:29:10.410Z,9.68
2018-08-07T21:31:44.546Z,9.40
2018-08-07T21:34:18.396Z,8.40
2018-08-07T21:36:52.326Z,9.58
2018-08-07T21:39:26.485Z,9.25
2018-08-07T21:42:00.745Z,9.23
2018-08-07T21:44:34.985Z,8.88
2018-08-07T21:47:09.343Z,9.30
2018-08-07T21:49:43.426Z,9.25
2018-08-07T21:52:17.695Z,9.18
2018-08-07T21:54:51.676Z,8.98
2018-08-07T21:57:25.614Z,9.33
2018-08-07T21:59:59.951Z,9.38
2018-08-07T22:02:34.082Z,9.30
2018-08-07T22:05:08.411Z,9.40
2018-08-07T22:07:42.665Z,9.63
2018-08-07T22:10:18.399Z,9.55
2018-08-07T22:12:52.857Z,9.38
2018-08-07T22:15:27.411Z,9.78
2018-08-07T22:18:01.282Z,10.08
2018-08-07T22:20:35.445Z,9.78
2018-08-07T22:23:10.241Z,9.95
2018-08-07T22:25:44.760Z,9.70
2018-08-07T22:28:18.697Z,9.58
2018-08-07T22:30:53.227Z,9.78
2018-08-07T22:33:27.215Z,9.98
2018-08-07T22:36:01.328Z,9.53
2018-08-07T22:38:35.419Z,10.08
2018-08-07T22:41:10.122Z,9.78
2018-08-07T22:43:44.318Z,9.78
2018-08-07T22:46:18.200Z,10.48
2018-08-07T22:48:52.157Z,10.20
2018-08-07T22:51:26.480Z,10.50
2018-08-07T22:54:00.415Z,10.45
2018-08-07T22:56:34.266Z,10.20
2018-08-07T22:59:08.369Z,9.68
2018-08-07T23:01:42.300Z,9.80
2018-08-07T23:04:16.316Z,9.70
2018-08-07T23:06:50.480Z,10.28
2018-08-07T23:09:24.639Z,10.25
2018-08-07T23:11:58.706Z,10.38
2018-08-07T23:14:32.897Z,10.15
2018-08-07T23:17:07.292Z,10.32
2018-08-07T23:19:41.036Z,10.20
2018-08-07T23:22:15.177Z,10.03
2018-08-07T23:24:49.355Z,9.70
2018-08-07T23:27:23.307Z,9.98
2018-08-07T23:29:57.405Z,10.58
2018-08-07T23:32:32.565Z,9.90
2018-08-07T23:35:06.665Z,9.90
2018-08-07T23:37:40.756Z,9.65
2018-08-07T23:40:15.575Z,10.28
2018-08-07T23:42:49.605Z,9.85
2018-08-07T23:45:23.597Z,10.40
2018-08-07T23:47:57.793Z,9.80
2018-08-07T23:50:31.843Z,9.48
2018-08-07T23:53:06.077Z,9.50
2018-08-07T23:55:39.855Z,9.55
2018-08-07T23:58:14.100Z,9.73
